sensor_id;sensor_type;location;lat;lon;timestamp;P1;durP1;ratioP1;P2;durP2;ratioP2
19374;SDS011;9823;50.936;4.046;2023-07-13T00:00:59;8.40;;;1.73;;
19374;SDS011;9823;50.936;4.046;2023-07-13T00:03:25;5.17;;;1.67;;
19374;SDS011;9823;50.936;4.046;2023-07-13T00:05:58;8.07;;;1.57;;
19374;SDS011;9823;50.936;4.046;2023-07-13T00:08:24;7.20;;;1.93;;
19374;SDS011;9823;50.936;4.046;2023-07-13T00:10:51;8.40;;;2.00;;
19374;SDS011;9823;50.936;4.046;2023-07-13T00:13:19;8.23;;;2.00;;
19374;SDS011;9823;50.936;4.046;2023-07-13T00:15:48;10.53;;;2.13;;
19374;SDS011;9823;50.936;4.046;2023-07-13T00:18:14;6.53;;;1.63;;
19374;SDS011;9823;50.936;4.046;2023-07-13T00:20:40;9.00;;;1.97;;
19374;SDS011;9823;50.936;4.046;2023-07-13T00:23:07;14.63;;;1.80;;
19374;SDS011;9823;50.936;4.046;2023-07-13T00:25:33;17.33;;;2.50;;
19374;SDS011;9823;50.936;4.046;2023-07-13T00:28:00;9.70;;;2.63;;
19374;SDS011;9823;50.936;4.046;2023-07-13T00:30:26;8.13;;;2.07;;
19374;SDS011;9823;50.936;4.046;2023-07-13T00:32:54;12.77;;;2.50;;
19374;SDS011;9823;50.936;4.046;2023-07-13T00:35:20;9.63;;;1.97;;
19374;SDS011;9823;50.936;4.046;2023-07-13T00:37:48;7.07;;;1.83;;
19374;SDS011;9823;50.936;4.046;2023-07-13T00:40:15;9.87;;;2.00;;
19374;SDS011;9823;50.936;4.046;2023-07-13T00:42:41;11.70;;;2.50;;
19374;SDS011;9823;50.936;4.046;2023-07-13T00:47:35;11.00;;;2.33;;
19374;SDS011;9823;50.936;4.046;2023-07-13T00:50:02;10.43;;;2.67;;
19374;SDS011;9823;50.936;4.046;2023-07-13T00:52:28;8.50;;;2.00;;
19374;SDS011;9823;50.936;4.046;2023-07-13T00:54:57;11.30;;;2.20;;
19374;SDS011;9823;50.936;4.046;2023-07-13T00:57:23;8.80;;;2.10;;
19374;SDS011;9823;50.936;4.046;2023-07-13T01:00:00;11.93;;;2.07;;
19374;SDS011;9823;50.936;4.046;2023-07-13T01:02:31;12.30;;;2.20;;
19374;SDS011;9823;50.936;4.046;2023-07-13T01:05:00;13.70;;;2.33;;
19374;SDS011;9823;50.936;4.046;2023-07-13T01:07:26;12.23;;;2.10;;
19374;SDS011;9823;50.936;4.046;2023-07-13T01:09:53;9.90;;;2.00;;
19374;SDS011;9823;50.936;4.046;2023-07-13T01:12:19;10.40;;;2.30;;
19374;SDS011;9823;50.936;4.046;2023-07-13T01:14:45;10.00;;;2.40;;
19374;SDS011;9823;50.936;4.046;2023-07-13T01:17:17;14.80;;;2.57;;
19374;SDS011;9823;50.936;4.046;2023-07-13T01:19:46;11.23;;;2.37;;
19374;SDS011;9823;50.936;4.046;2023-07-13T01:22:13;11.57;;;2.40;;
19374;SDS011;9823;50.936;4.046;2023-07-13T01:24:39;12.93;;;2.70;;
19374;SDS011;9823;50.936;4.046;2023-07-13T01:27:11;10.43;;;2.43;;
19374;SDS011;9823;50.936;4.046;2023-07-13T01:29:38;15.50;;;2.60;;
19374;SDS011;9823;50.936;4.046;2023-07-13T01:32:07;16.00;;;2.53;;
19374;SDS011;9823;50.936;4.046;2023-07-13T01:34:33;10.37;;;3.00;;
19374;SDS011;9823;50.936;4.046;2023-07-13T01:37:02;10.83;;;2.47;;
19374;SDS011;9823;50.936;4.046;2023-07-13T01:39:28;12.23;;;2.50;;
19374;SDS011;9823;50.936;4.046;2023-07-13T01:41:54;13.83;;;3.07;;
19374;SDS011;9823;50.936;4.046;2023-07-13T01:44:20;13.83;;;2.47;;
19374;SDS011;9823;50.936;4.046;2023-07-13T01:46:46;10.17;;;2.60;;
19374;SDS011;9823;50.936;4.046;2023-07-13T01:49:12;11.50;;;2.83;;
19374;SDS011;9823;50.936;4.046;2023-07-13T01:51:38;13.63;;;2.47;;
19374;SDS011;9823;50.936;4.046;2023-07-13T01:54:06;16.57;;;2.50;;
19374;SDS011;9823;50.936;4.046;2023-07-13T01:56:32;14.20;;;2.80;;
19374;SDS011;9823;50.936;4.046;2023-07-13T01:59:01;12.20;;;2.60;;
19374;SDS011;9823;50.936;4.046;2023-07-13T02:01:27;15.00;;;2.70;;
19374;SDS011;9823;50.936;4.046;2023-07-13T02:03:56;11.10;;;2.57;;
19374;SDS011;9823;50.936;4.046;2023-07-13T02:06:22;11.93;;;2.70;;
19374;SDS011;9823;50.936;4.046;2023-07-13T02:08:48;11.47;;;2.97;;
19374;SDS011;9823;50.936;4.046;2023-07-13T02:11:16;12.17;;;2.40;;
19374;SDS011;9823;50.936;4.046;2023-07-13T02:13:42;12.67;;;2.47;;
19374;SDS011;9823;50.936;4.046;2023-07-13T02:16:08;15.07;;;2.93;;
19374;SDS011;9823;50.936;4.046;2023-07-13T02:18:37;12.30;;;2.97;;
19374;SDS011;9823;50.936;4.046;2023-07-13T02:21:03;9.67;;;2.33;;
19374;SDS011;9823;50.936;4.046;2023-07-13T02:23:29;13.53;;;2.50;;
19374;SDS011;9823;50.936;4.046;2023-07-13T02:25:55;11.73;;;2.37;;
19374;SDS011;9823;50.936;4.046;2023-07-13T02:28:22;13.43;;;3.07;;
19374;SDS011;9823;50.936;4.046;2023-07-13T02:30:48;10.93;;;2.27;;
19374;SDS011;9823;50.936;4.046;2023-07-13T02:33:14;26.60;;;4.40;;
19374;SDS011;9823;50.936;4.046;2023-07-13T02:35:40;10.00;;;2.23;;
19374;SDS011;9823;50.936;4.046;2023-07-13T02:38:06;11.13;;;2.27;;
19374;SDS011;9823;50.936;4.046;2023-07-13T02:40:32;13.80;;;3.40;;
19374;SDS011;9823;50.936;4.046;2023-07-13T02:43:01;11.07;;;2.80;;
19374;SDS011;9823;50.936;4.046;2023-07-13T02:45:27;13.50;;;2.83;;
19374;SDS011;9823;50.936;4.046;2023-07-13T02:47:53;8.83;;;2.60;;
19374;SDS011;9823;50.936;4.046;2023-07-13T02:50:20;16.67;;;3.07;;
19374;SDS011;9823;50.936;4.046;2023-07-13T02:52:46;12.80;;;2.93;;
19374;SDS011;9823;50.936;4.046;2023-07-13T02:55:12;15.00;;;2.90;;
19374;SDS011;9823;50.936;4.046;2023-07-13T02:57:38;15.57;;;3.27;;
19374;SDS011;9823;50.936;4.046;2023-07-13T03:00:10;11.83;;;2.67;;
19374;SDS011;9823;50.936;4.046;2023-07-13T03:02:36;10.77;;;2.50;;
19374;SDS011;9823;50.936;4.046;2023-07-13T03:05:02;16.43;;;3.03;;
19374;SDS011;9823;50.936;4.046;2023-07-13T03:07:31;15.10;;;2.90;;
19374;SDS011;9823;50.936;4.046;2023-07-13T03:09:58;13.73;;;2.60;;
19374;SDS011;9823;50.936;4.046;2023-07-13T03:12:26;13.43;;;2.70;;
19374;SDS011;9823;50.936;4.046;2023-07-13T03:14:52;18.07;;;3.43;;
19374;SDS011;9823;50.936;4.046;2023-07-13T03:17:19;12.00;;;2.83;;
19374;SDS011;9823;50.936;4.046;2023-07-13T03:19:47;13.73;;;3.27;;
19374;SDS011;9823;50.936;4.046;2023-07-13T03:22:16;16.37;;;3.20;;
19374;SDS011;9823;50.936;4.046;2023-07-13T03:24:42;12.57;;;4.03;;
19374;SDS011;9823;50.936;4.046;2023-07-13T03:27:08;12.83;;;2.87;;
19374;SDS011;9823;50.936;4.046;2023-07-13T03:29:34;12.03;;;3.20;;
19374;SDS011;9823;50.936;4.046;2023-07-13T03:32:00;14.00;;;3.50;;
19374;SDS011;9823;50.936;4.046;2023-07-13T03:34:26;13.33;;;3.00;;
19374;SDS011;9823;50.936;4.046;2023-07-13T03:36:56;22.73;;;3.73;;
19374;SDS011;9823;50.936;4.046;2023-07-13T03:39:22;13.57;;;3.90;;
19374;SDS011;9823;50.936;4.046;2023-07-13T03:41:48;10.73;;;3.30;;
19374;SDS011;9823;50.936;4.046;2023-07-13T03:44:15;15.47;;;3.63;;
19374;SDS011;9823;50.936;4.046;2023-07-13T03:46:42;16.23;;;3.60;;
19374;SDS011;9823;50.936;4.046;2023-07-13T03:49:08;13.80;;;3.80;;
19374;SDS011;9823;50.936;4.046;2023-07-13T03:51:37;19.33;;;4.13;;
19374;SDS011;9823;50.936;4.046;2023-07-13T03:54:03;16.90;;;4.20;;
19374;SDS011;9823;50.936;4.046;2023-07-13T03:56:29;14.00;;;3.67;;
19374;SDS011;9823;50.936;4.046;2023-07-13T03:58:55;16.73;;;3.40;;
19374;SDS011;9823;50.936;4.046;2023-07-13T04:01:22;23.17;;;4.17;;
19374;SDS011;9823;50.936;4.046;2023-07-13T04:03:52;12.07;;;4.00;;
19374;SDS011;9823;50.936;4.046;2023-07-13T04:06:22;18.10;;;4.13;;
19374;SDS011;9823;50.936;4.046;2023-07-13T04:08:50;13.57;;;3.90;;
19374;SDS011;9823;50.936;4.046;2023-07-13T04:11:17;18.13;;;3.83;;
19374;SDS011;9823;50.936;4.046;2023-07-13T04:13:46;17.40;;;3.87;;
19374;SDS011;9823;50.936;4.046;2023-07-13T04:16:13;10.00;;;3.20;;
19374;SDS011;9823;50.936;4.046;2023-07-13T04:18:42;10.57;;;3.20;;
19374;SDS011;9823;50.936;4.046;2023-07-13T04:21:10;15.30;;;3.73;;
19374;SDS011;9823;50.936;4.046;2023-07-13T04:23:37;14.20;;;3.33;;
19374;SDS011;9823;50.936;4.046;2023-07-13T04:26:06;16.23;;;3.90;;
19374;SDS011;9823;50.936;4.046;2023-07-13T04:28:38;17.07;;;4.47;;
19374;SDS011;9823;50.936;4.046;2023-07-13T04:31:04;14.13;;;3.60;;
19374;SDS011;9823;50.936;4.046;2023-07-13T04:33:32;21.43;;;4.03;;
19374;SDS011;9823;50.936;4.046;2023-07-13T04:35:59;13.57;;;3.30;;
19374;SDS011;9823;50.936;4.046;2023-07-13T04:38:27;13.30;;;3.90;;
19374;SDS011;9823;50.936;4.046;2023-07-13T04:40:59;24.90;;;3.60;;
19374;SDS011;9823;50.936;4.046;2023-07-13T04:43:26;19.63;;;3.77;;
19374;SDS011;9823;50.936;4.046;2023-07-13T04:45:55;13.13;;;3.30;;
19374;SDS011;9823;50.936;4.046;2023-07-13T04:48:21;16.63;;;4.23;;
19374;SDS011;9823;50.936;4.046;2023-07-13T04:50:47;9.43;;;3.37;;
19374;SDS011;9823;50.936;4.046;2023-07-13T04:53:17;18.60;;;3.93;;
19374;SDS011;9823;50.936;4.046;2023-07-13T04:55:43;16.20;;;3.60;;
19374;SDS011;9823;50.936;4.046;2023-07-13T04:58:09;14.37;;;3.60;;
19374;SDS011;9823;50.936;4.046;2023-07-13T05:00:35;17.77;;;3.70;;
19374;SDS011;9823;50.936;4.046;2023-07-13T05:03:03;20.97;;;3.67;;
19374;SDS011;9823;50.936;4.046;2023-07-13T05:05:29;12.57;;;3.63;;
19374;SDS011;9823;50.936;4.046;2023-07-13T05:07:55;10.13;;;3.27;;
19374;SDS011;9823;50.936;4.046;2023-07-13T05:10:24;17.63;;;3.73;;
19374;SDS011;9823;50.936;4.046;2023-07-13T05:12:52;13.17;;;3.10;;
19374;SDS011;9823;50.936;4.046;2023-07-13T05:15:20;15.37;;;3.70;;
19374;SDS011;9823;50.936;4.046;2023-07-13T05:17:47;22.83;;;3.90;;
19374;SDS011;9823;50.936;4.046;2023-07-13T05:20:13;12.83;;;3.23;;
19374;SDS011;9823;50.936;4.046;2023-07-13T05:22:39;13.60;;;3.87;;
19374;SDS011;9823;50.936;4.046;2023-07-13T05:25:05;15.83;;;3.50;;
19374;SDS011;9823;50.936;4.046;2023-07-13T05:27:34;15.27;;;3.97;;
19374;SDS011;9823;50.936;4.046;2023-07-13T05:30:01;20.63;;;3.83;;
19374;SDS011;9823;50.936;4.046;2023-07-13T05:32:30;16.60;;;3.77;;
19374;SDS011;9823;50.936;4.046;2023-07-13T05:34:56;21.27;;;3.77;;
19374;SDS011;9823;50.936;4.046;2023-07-13T05:37:24;13.13;;;3.03;;
19374;SDS011;9823;50.936;4.046;2023-07-13T05:39:50;10.40;;;3.20;;
19374;SDS011;9823;50.936;4.046;2023-07-13T05:42:17;18.50;;;3.80;;
19374;SDS011;9823;50.936;4.046;2023-07-13T05:44:43;16.93;;;3.47;;
19374;SDS011;9823;50.936;4.046;2023-07-13T05:47:09;16.07;;;3.33;;
19374;SDS011;9823;50.936;4.046;2023-07-13T05:49:35;12.03;;;3.23;;
19374;SDS011;9823;50.936;4.046;2023-07-13T05:52:01;12.80;;;3.30;;
19374;SDS011;9823;50.936;4.046;2023-07-13T05:54:27;13.60;;;2.93;;
19374;SDS011;9823;50.936;4.046;2023-07-13T05:56:53;15.17;;;3.83;;
19374;SDS011;9823;50.936;4.046;2023-07-13T05:59:19;16.90;;;4.33;;
19374;SDS011;9823;50.936;4.046;2023-07-13T06:01:45;18.70;;;3.77;;
19374;SDS011;9823;50.936;4.046;2023-07-13T06:04:16;12.10;;;3.27;;
19374;SDS011;9823;50.936;4.046;2023-07-13T06:06:42;9.27;;;3.07;;
19374;SDS011;9823;50.936;4.046;2023-07-13T06:09:10;17.00;;;3.33;;
19374;SDS011;9823;50.936;4.046;2023-07-13T06:11:38;14.50;;;3.47;;
19374;SDS011;9823;50.936;4.046;2023-07-13T06:14:04;14.23;;;3.57;;
19374;SDS011;9823;50.936;4.046;2023-07-13T06:16:30;15.70;;;3.33;;
19374;SDS011;9823;50.936;4.046;2023-07-13T06:18:57;18.00;;;3.83;;
19374;SDS011;9823;50.936;4.046;2023-07-13T06:21:23;19.53;;;3.40;;
19374;SDS011;9823;50.936;4.046;2023-07-13T06:23:49;10.77;;;3.27;;
19374;SDS011;9823;50.936;4.046;2023-07-13T06:26:16;12.20;;;4.07;;
19374;SDS011;9823;50.936;4.046;2023-07-13T06:28:43;15.17;;;3.87;;
19374;SDS011;9823;50.936;4.046;2023-07-13T06:31:10;17.80;;;3.77;;
19374;SDS011;9823;50.936;4.046;2023-07-13T06:33:36;18.63;;;3.50;;
19374;SDS011;9823;50.936;4.046;2023-07-13T06:36:05;18.97;;;3.30;;
19374;SDS011;9823;50.936;4.046;2023-07-13T06:38:32;10.03;;;3.43;;
19374;SDS011;9823;50.936;4.046;2023-07-13T06:40:58;14.67;;;3.30;;
19374;SDS011;9823;50.936;4.046;2023-07-13T06:43:25;12.73;;;3.53;;
19374;SDS011;9823;50.936;4.046;2023-07-13T06:45:51;15.20;;;3.47;;
19374;SDS011;9823;50.936;4.046;2023-07-13T06:48:20;30.60;;;4.63;;
19374;SDS011;9823;50.936;4.046;2023-07-13T06:50:47;15.17;;;3.33;;
19374;SDS011;9823;50.936;4.046;2023-07-13T06:53:17;15.30;;;2.90;;
19374;SDS011;9823;50.936;4.046;2023-07-13T06:55:43;15.33;;;3.90;;
19374;SDS011;9823;50.936;4.046;2023-07-13T06:58:10;11.73;;;3.20;;
19374;SDS011;9823;50.936;4.046;2023-07-13T07:00:36;16.17;;;3.70;;
19374;SDS011;9823;50.936;4.046;2023-07-13T07:03:05;11.30;;;3.10;;
19374;SDS011;9823;50.936;4.046;2023-07-13T07:05:31;14.63;;;2.83;;
19374;SDS011;9823;50.936;4.046;2023-07-13T07:07:57;13.70;;;3.17;;
19374;SDS011;9823;50.936;4.046;2023-07-13T07:10:25;17.93;;;3.03;;
19374;SDS011;9823;50.936;4.046;2023-07-13T07:12:57;13.10;;;3.03;;
19374;SDS011;9823;50.936;4.046;2023-07-13T07:15:23;18.63;;;3.50;;
19374;SDS011;9823;50.936;4.046;2023-07-13T07:17:50;9.83;;;2.83;;
19374;SDS011;9823;50.936;4.046;2023-07-13T07:20:16;16.27;;;2.83;;
19374;SDS011;9823;50.936;4.046;2023-07-13T07:22:45;17.90;;;3.60;;
19374;SDS011;9823;50.936;4.046;2023-07-13T07:25:13;49.03;;;8.07;;
19374;SDS011;9823;50.936;4.046;2023-07-13T07:27:39;9.90;;;2.87;;
19374;SDS011;9823;50.936;4.046;2023-07-13T07:30:05;14.67;;;2.73;;
19374;SDS011;9823;50.936;4.046;2023-07-13T07:32:32;19.40;;;2.97;;
19374;SDS011;9823;50.936;4.046;2023-07-13T07:34:58;12.80;;;5.43;;
19374;SDS011;9823;50.936;4.046;2023-07-13T07:37:24;20.20;;;3.03;;
19374;SDS011;9823;50.936;4.046;2023-07-13T07:39:50;11.07;;;2.50;;
19374;SDS011;9823;50.936;4.046;2023-07-13T07:42:16;12.23;;;2.83;;
19374;SDS011;9823;50.936;4.046;2023-07-13T07:44:42;13.77;;;3.03;;
19374;SDS011;9823;50.936;4.046;2023-07-13T07:47:08;11.67;;;2.53;;
19374;SDS011;9823;50.936;4.046;2023-07-13T07:49:35;14.07;;;2.60;;
19374;SDS011;9823;50.936;4.046;2023-07-13T07:52:03;11.13;;;2.70;;
19374;SDS011;9823;50.936;4.046;2023-07-13T07:54:30;12.23;;;2.70;;
19374;SDS011;9823;50.936;4.046;2023-07-13T07:56:56;7.10;;;2.33;;
19374;SDS011;9823;50.936;4.046;2023-07-13T07:59:28;11.57;;;3.10;;
19374;SDS011;9823;50.936;4.046;2023-07-13T08:01:54;10.67;;;2.47;;
19374;SDS011;9823;50.936;4.046;2023-07-13T08:04:28;11.67;;;2.40;;
19374;SDS011;9823;50.936;4.046;2023-07-13T08:07:08;11.60;;;2.97;;
19374;SDS011;9823;50.936;4.046;2023-07-13T08:09:36;12.17;;;2.47;;
19374;SDS011;9823;50.936;4.046;2023-07-13T08:12:02;10.40;;;2.40;;
19374;SDS011;9823;50.936;4.046;2023-07-13T08:14:29;12.17;;;2.73;;
19374;SDS011;9823;50.936;4.046;2023-07-13T08:16:55;11.73;;;2.67;;
19374;SDS011;9823;50.936;4.046;2023-07-13T08:19:21;9.13;;;2.97;;
19374;SDS011;9823;50.936;4.046;2023-07-13T08:21:47;9.37;;;2.40;;
19374;SDS011;9823;50.936;4.046;2023-07-13T08:24:15;10.23;;;2.63;;
19374;SDS011;9823;50.936;4.046;2023-07-13T08:26:44;11.83;;;3.03;;
19374;SDS011;9823;50.936;4.046;2023-07-13T08:29:11;8.80;;;2.50;;
19374;SDS011;9823;50.936;4.046;2023-07-13T08:31:37;8.83;;;2.50;;
19374;SDS011;9823;50.936;4.046;2023-07-13T08:34:03;9.17;;;2.00;;
19374;SDS011;9823;50.936;4.046;2023-07-13T08:36:29;9.97;;;2.40;;
19374;SDS011;9823;50.936;4.046;2023-07-13T08:38:55;13.80;;;2.50;;
19374;SDS011;9823;50.936;4.046;2023-07-13T08:41:21;7.57;;;2.40;;
19374;SDS011;9823;50.936;4.046;2023-07-13T08:43:51;11.30;;;2.53;;
19374;SDS011;9823;50.936;4.046;2023-07-13T08:53:44;10.90;;;2.27;;
19374;SDS011;9823;50.936;4.046;2023-07-13T08:56:21;8.63;;;2.57;;
19374;SDS011;9823;50.936;4.046;2023-07-13T08:58:48;9.27;;;2.43;;
19374;SDS011;9823;50.936;4.046;2023-07-13T09:03:57;10.23;;;2.50;;
19374;SDS011;9823;50.936;4.046;2023-07-13T09:06:31;6.80;;;2.10;;
19374;SDS011;9823;50.936;4.046;2023-07-13T09:09:06;9.53;;;2.20;;
19374;SDS011;9823;50.936;4.046;2023-07-13T09:16:47;13.10;;;2.33;;
19374;SDS011;9823;50.936;4.046;2023-07-13T09:19:23;8.83;;;2.40;;
19374;SDS011;9823;50.936;4.046;2023-07-13T09:21:50;10.87;;;2.20;;
19374;SDS011;9823;50.936;4.046;2023-07-13T09:26:45;10.23;;;2.40;;
19374;SDS011;9823;50.936;4.046;2023-07-13T09:29:18;9.73;;;1.80;;
19374;SDS011;9823;50.936;4.046;2023-07-13T09:31:47;10.23;;;2.07;;
19374;SDS011;9823;50.936;4.046;2023-07-13T09:34:15;9.57;;;2.80;;
19374;SDS011;9823;50.936;4.046;2023-07-13T09:36:42;7.00;;;2.00;;
19374;SDS011;9823;50.936;4.046;2023-07-13T09:42:00;12.37;;;2.60;;
19374;SDS011;9823;50.936;4.046;2023-07-13T09:44:28;9.87;;;2.30;;
19374;SDS011;9823;50.936;4.046;2023-07-13T09:46:57;6.03;;;2.03;;
19374;SDS011;9823;50.936;4.046;2023-07-13T09:49:27;8.30;;;2.23;;
19374;SDS011;9823;50.936;4.046;2023-07-13T09:52:00;6.23;;;2.00;;
19374;SDS011;9823;50.936;4.046;2023-07-13T09:54:27;8.03;;;2.13;;
19374;SDS011;9823;50.936;4.046;2023-07-13T09:56:57;7.27;;;1.93;;
19374;SDS011;9823;50.936;4.046;2023-07-13T09:59:44;6.43;;;1.70;;
19374;SDS011;9823;50.936;4.046;2023-07-13T10:04:58;7.90;;;1.73;;
19374;SDS011;9823;50.936;4.046;2023-07-13T10:07:25;7.40;;;1.97;;
19374;SDS011;9823;50.936;4.046;2023-07-13T10:09:54;5.47;;;1.87;;
19374;SDS011;9823;50.936;4.046;2023-07-13T10:12:21;5.63;;;1.77;;
19374;SDS011;9823;50.936;4.046;2023-07-13T10:14:51;7.43;;;2.17;;
19374;SDS011;9823;50.936;4.046;2023-07-13T10:17:19;6.73;;;1.80;;
19374;SDS011;9823;50.936;4.046;2023-07-13T10:19:51;12.60;;;2.20;;
19374;SDS011;9823;50.936;4.046;2023-07-13T10:22:22;5.77;;;1.70;;
19374;SDS011;9823;50.936;4.046;2023-07-13T10:24:49;11.73;;;2.73;;
19374;SDS011;9823;50.936;4.046;2023-07-13T10:27:19;6.07;;;1.97;;
19374;SDS011;9823;50.936;4.046;2023-07-13T10:32:36;7.53;;;2.03;;
19374;SDS011;9823;50.936;4.046;2023-07-13T10:35:02;6.30;;;1.97;;
19374;SDS011;9823;50.936;4.046;2023-07-13T10:37:29;7.87;;;1.90;;
19374;SDS011;9823;50.936;4.046;2023-07-13T10:39:58;5.77;;;2.07;;
19374;SDS011;9823;50.936;4.046;2023-07-13T10:42:36;7.23;;;1.57;;
19374;SDS011;9823;50.936;4.046;2023-07-13T10:45:40;5.47;;;1.73;;
19374;SDS011;9823;50.936;4.046;2023-07-13T10:47:59;6.07;;;1.77;;
19374;SDS011;9823;50.936;4.046;2023-07-13T10:50:26;5.50;;;1.90;;
19374;SDS011;9823;50.936;4.046;2023-07-13T10:52:55;5.70;;;1.77;;
19374;SDS011;9823;50.936;4.046;2023-07-13T10:58:11;10.80;;;2.70;;
19374;SDS011;9823;50.936;4.046;2023-07-13T11:00:43;6.33;;;2.03;;
19374;SDS011;9823;50.936;4.046;2023-07-13T11:03:10;7.23;;;2.40;;
19374;SDS011;9823;50.936;4.046;2023-07-13T11:05:37;6.63;;;2.10;;
19374;SDS011;9823;50.936;4.046;2023-07-13T11:10:53;8.63;;;2.10;;
19374;SDS011;9823;50.936;4.046;2023-07-13T11:13:36;9.13;;;1.77;;
19374;SDS011;9823;50.936;4.046;2023-07-13T11:16:12;6.97;;;1.97;;
19374;SDS011;9823;50.936;4.046;2023-07-13T11:18:38;5.87;;;1.83;;
19374;SDS011;9823;50.936;4.046;2023-07-13T11:21:12;8.70;;;1.90;;
19374;SDS011;9823;50.936;4.046;2023-07-13T11:23:41;7.43;;;1.60;;
19374;SDS011;9823;50.936;4.046;2023-07-13T11:26:53;7.97;;;1.87;;
19374;SDS011;9823;50.936;4.046;2023-07-13T11:28:54;7.97;;;1.97;;
19374;SDS011;9823;50.936;4.046;2023-07-13T11:31:20;12.83;;;2.53;;
19374;SDS011;9823;50.936;4.046;2023-07-13T11:33:56;8.17;;;2.40;;
19374;SDS011;9823;50.936;4.046;2023-07-13T11:36:23;8.40;;;1.63;;
19374;SDS011;9823;50.936;4.046;2023-07-13T11:41:37;9.80;;;2.30;;
19374;SDS011;9823;50.936;4.046;2023-07-13T11:44:14;7.70;;;2.17;;
19374;SDS011;9823;50.936;4.046;2023-07-13T11:46:50;5.97;;;1.77;;
19374;SDS011;9823;50.936;4.046;2023-07-13T11:49:18;4.77;;;1.80;;
19374;SDS011;9823;50.936;4.046;2023-07-13T11:51:47;7.30;;;2.07;;
19374;SDS011;9823;50.936;4.046;2023-07-13T11:54:32;9.37;;;2.30;;
19374;SDS011;9823;50.936;4.046;2023-07-13T11:57:02;6.60;;;2.50;;
19374;SDS011;9823;50.936;4.046;2023-07-13T11:59:31;5.13;;;2.07;;
19374;SDS011;9823;50.936;4.046;2023-07-13T12:01:58;5.27;;;2.10;;
19374;SDS011;9823;50.936;4.046;2023-07-13T12:04:32;6.23;;;2.20;;
